sensor_id;sensor_type;location;lat;lon;timestamp;pressure;altitude;pressure_sealevel;temperature;humidity
26443;BME280;5563;52.296;6.806;2023-04-21T00:00:40;101431.38;;;8.74;80.15
26443;BME280;5563;52.296;6.806;2023-04-21T00:03:08;101430.97;;;8.80;80.31
26443;BME280;5563;52.296;6.806;2023-04-21T00:05:41;101433.47;;;8.83;80.96
26443;BME280;5563;52.296;6.806;2023-04-21T00:08:17;101413.88;;;8.84;81.40
26443;BME280;5563;52.296;6.806;2023-04-21T00:10:59;101419.63;;;8.91;81.35
26443;BME280;5563;52.296;6.806;2023-04-21T00:13:27;101408.56;;;8.84;81.33
26443;BME280;5563;52.296;6.806;2023-04-21T00:16:01;101406.94;;;8.96;81.91
26443;BME280;5563;52.296;6.806;2023-04-21T00:18:34;101409.38;;;8.99;81.57
26443;BME280;5563;52.296;6.806;2023-04-21T00:21:08;101399.38;;;9.02;82.19
26443;BME280;5563;52.296;6.806;2023-04-21T00:23:35;101390.56;;;9.02;81.70
26443;BME280;5563;52.296;6.806;2023-04-21T00:26:09;101378.22;;;9.01;81.69
26443;BME280;5563;52.296;6.806;2023-04-21T00:28:37;101378.13;;;9.02;82.53
26443;BME280;5563;52.296;6.806;2023-04-21T00:31:04;101356.56;;;8.93;82.33
26443;BME280;5563;52.296;6.806;2023-04-21T00:33:37;101386.75;;;9.06;82.39
26443;BME280;5563;52.296;6.806;2023-04-21T00:36:04;101375.25;;;9.05;82.34
26443;BME280;5563;52.296;6.806;2023-04-21T00:38:38;101380.47;;;9.07;82.25
26443;BME280;5563;52.296;6.806;2023-04-21T00:41:19;101377.91;;;9.05;82.49
26443;BME280;5563;52.296;6.806;2023-04-21T00:44:05;101348.91;;;8.88;82.49
26443;BME280;5563;52.296;6.806;2023-04-21T00:46:33;101347.84;;;8.91;82.55
26443;BME280;5563;52.296;6.806;2023-04-21T00:49:06;101357.44;;;8.93;82.64
26443;BME280;5563;52.296;6.806;2023-04-21T00:51:40;101364.16;;;8.99;83.31
26443;BME280;5563;52.296;6.806;2023-04-21T00:54:15;101363.19;;;9.00;83.03
26443;BME280;5563;52.296;6.806;2023-04-21T00:56:50;101350.22;;;8.95;82.96
26443;BME280;5563;52.296;6.806;2023-04-21T00:59:17;101351.09;;;8.96;83.60
26443;BME280;5563;52.296;6.806;2023-04-21T01:01:51;101351.53;;;9.02;83.55
26443;BME280;5563;52.296;6.806;2023-04-21T01:04:26;101338.31;;;9.01;83.56
26443;BME280;5563;52.296;6.806;2023-04-21T01:07:00;101347.78;;;9.05;83.37
26443;BME280;5563;52.296;6.806;2023-04-21T01:09:34;101345.03;;;9.06;83.75
26443;BME280;5563;52.296;6.806;2023-04-21T01:12:11;101321.91;;;8.94;83.36
26443;BME280;5563;52.296;6.806;2023-04-21T01:14:39;101324.50;;;8.96;83.58
26443;BME280;5563;52.296;6.806;2023-04-21T01:17:13;101350.25;;;9.08;83.66
26443;BME280;5563;52.296;6.806;2023-04-21T01:19:44;101341.41;;;9.07;83.93
26443;BME280;5563;52.296;6.806;2023-04-21T01:22:19;101344.84;;;9.09;83.84
26443;BME280;5563;52.296;6.806;2023-04-21T01:24:47;101349.94;;;9.12;82.98
26443;BME280;5563;52.296;6.806;2023-04-21T01:27:20;101348.25;;;9.11;83.33
26443;BME280;5563;52.296;6.806;2023-04-21T01:29:50;101343.88;;;9.10;83.32
26443;BME280;5563;52.296;6.806;2023-04-21T01:32:27;101343.22;;;9.07;83.32
26443;BME280;5563;52.296;6.806;2023-04-21T01:34:58;101343.97;;;9.09;83.09
26443;BME280;5563;52.296;6.806;2023-04-21T01:37:32;101342.38;;;9.06;83.85
26443;BME280;5563;52.296;6.806;2023-04-21T01:40:02;101352.59;;;9.12;83.31
26443;BME280;5563;52.296;6.806;2023-04-21T01:42:39;101360.28;;;9.17;83.60
26443;BME280;5563;52.296;6.806;2023-04-21T01:45:09;101361.34;;;9.14;83.79
26443;BME280;5563;52.296;6.806;2023-04-21T01:47:42;101364.09;;;9.13;83.66
26443;BME280;5563;52.296;6.806;2023-04-21T01:50:09;101375.28;;;9.18;83.37
26443;BME280;5563;52.296;6.806;2023-04-21T01:52:43;101384.88;;;9.20;83.62
26443;BME280;5563;52.296;6.806;2023-04-21T01:55:10;101362.94;;;9.17;83.10
26443;BME280;5563;52.296;6.806;2023-04-21T01:57:37;101372.13;;;9.25;83.27
26443;BME280;5563;52.296;6.806;2023-04-21T02:00:11;101373.91;;;9.25;83.29
26443;BME280;5563;52.296;6.806;2023-04-21T02:02:38;101381.91;;;9.25;83.49
26443;BME280;5563;52.296;6.806;2023-04-21T02:05:12;101381.91;;;9.25;82.96
26443;BME280;5563;52.296;6.806;2023-04-21T02:07:39;101385.63;;;9.22;83.03
26443;BME280;5563;52.296;6.806;2023-04-21T02:10:19;101381.16;;;9.23;82.97
26443;BME280;5563;52.296;6.806;2023-04-21T02:12:47;101381.16;;;9.23;83.50
26443;BME280;5563;52.296;6.806;2023-04-21T02:15:20;101387.44;;;9.22;83.60
26443;BME280;5563;52.296;6.806;2023-04-21T02:17:48;101375.00;;;9.22;83.41
26443;BME280;5563;52.296;6.806;2023-04-21T02:20:21;101371.59;;;9.20;83.41
26443;BME280;5563;52.296;6.806;2023-04-21T02:22:48;101376.69;;;9.23;83.35
26443;BME280;5563;52.296;6.806;2023-04-21T02:25:22;101377.72;;;9.21;83.34
26443;BME280;5563;52.296;6.806;2023-04-21T02:27:49;101370.59;;;9.21;83.31
26443;BME280;5563;52.296;6.806;2023-04-21T02:30:17;101372.41;;;9.21;83.45
26443;BME280;5563;52.296;6.806;2023-04-21T02:32:50;101367.31;;;9.18;83.13
26443;BME280;5563;52.296;6.806;2023-04-21T02:35:18;101369.09;;;9.17;83.58
26443;BME280;5563;52.296;6.806;2023-04-21T02:37:51;101380.38;;;9.21;83.25
26443;BME280;5563;52.296;6.806;2023-04-21T02:40:18;101367.09;;;9.21;83.54
26443;BME280;5563;52.296;6.806;2023-04-21T02:42:53;101369.97;;;9.18;83.41
26443;BME280;5563;52.296;6.806;2023-04-21T02:45:20;101372.63;;;9.18;83.18
26443;BME280;5563;52.296;6.806;2023-04-21T02:47:53;101365.78;;;9.14;83.41
26443;BME280;5563;52.296;6.806;2023-04-21T02:50:21;101361.00;;;9.06;83.34
26443;BME280;5563;52.296;6.806;2023-04-21T02:52:54;101368.66;;;9.11;83.14
26443;BME280;5563;52.296;6.806;2023-04-21T02:55:28;101363.75;;;9.05;83.05
26443;BME280;5563;52.296;6.806;2023-04-21T02:58:02;101376.53;;;9.12;83.74
26443;BME280;5563;52.296;6.806;2023-04-21T03:00:36;101378.66;;;9.07;83.53
26443;BME280;5563;52.296;6.806;2023-04-21T03:03:02;101386.31;;;9.12;83.58
26443;BME280;5563;52.296;6.806;2023-04-21T03:05:44;101382.84;;;9.11;83.25
26443;BME280;5563;52.296;6.806;2023-04-21T03:08:25;101379.31;;;9.11;83.24
26443;BME280;5563;52.296;6.806;2023-04-21T03:10:58;101381.97;;;9.11;83.71
26443;BME280;5563;52.296;6.806;2023-04-21T03:13:25;101385.59;;;9.10;83.79
26443;BME280;5563;52.296;6.806;2023-04-21T03:15:59;101382.84;;;9.11;83.46
26443;BME280;5563;52.296;6.806;2023-04-21T03:18:27;101393.25;;;9.14;83.44
26443;BME280;5563;52.296;6.806;2023-04-21T03:21:00;101391.75;;;9.10;83.64
26443;BME280;5563;52.296;6.806;2023-04-21T03:23:27;101389.75;;;9.14;83.66
26443;BME280;5563;52.296;6.806;2023-04-21T03:26:06;101391.56;;;9.13;83.44
26443;BME280;5563;52.296;6.806;2023-04-21T03:28:33;101369.91;;;9.05;83.46
26443;BME280;5563;52.296;6.806;2023-04-21T03:31:07;101385.38;;;9.13;83.64
26443;BME280;5563;52.296;6.806;2023-04-21T03:33:33;101377.78;;;9.07;83.53
26443;BME280;5563;52.296;6.806;2023-04-21T03:36:08;101392.59;;;9.11;83.37
26443;BME280;5563;52.296;6.806;2023-04-21T03:38:35;101369.28;;;9.02;83.56
26443;BME280;5563;52.296;6.806;2023-04-21T03:41:08;101376.22;;;9.04;83.40
26443;BME280;5563;52.296;6.806;2023-04-21T03:43:41;101391.47;;;9.15;83.64
26443;BME280;5563;52.296;6.806;2023-04-21T03:46:16;101389.94;;;9.11;83.67
26443;BME280;5563;52.296;6.806;2023-04-21T03:48:50;101393.38;;;9.13;83.42
26443;BME280;5563;52.296;6.806;2023-04-21T03:51:17;101390.59;;;9.14;83.27
26443;BME280;5563;52.296;6.806;2023-04-21T03:53:52;101386.25;;;9.13;83.39
26443;BME280;5563;52.296;6.806;2023-04-21T03:56:25;101367.16;;;9.07;83.65
26443;BME280;5563;52.296;6.806;2023-04-21T03:58:58;101376.44;;;9.14;83.51
26443;BME280;5563;52.296;6.806;2023-04-21T04:01:33;101374.84;;;9.11;83.61
26443;BME280;5563;52.296;6.806;2023-04-21T04:04:07;101377.28;;;9.14;83.68
26443;BME280;5563;52.296;6.806;2023-04-21T04:06:34;101374.75;;;9.13;83.63
26443;BME280;5563;52.296;6.806;2023-04-21T04:09:07;101374.00;;;9.11;83.39
26443;BME280;5563;52.296;6.806;2023-04-21T04:11:34;101373.13;;;9.10;83.35
26443;BME280;5563;52.296;6.806;2023-04-21T04:14:01;101361.09;;;9.05;83.57
26443;BME280;5563;52.296;6.806;2023-04-21T04:16:34;101365.25;;;9.09;83.27
26443;BME280;5563;52.296;6.806;2023-04-21T04:19:08;101347.88;;;9.03;83.60
26443;BME280;5563;52.296;6.806;2023-04-21T04:21:41;101351.75;;;9.12;83.43
26443;BME280;5563;52.296;6.806;2023-04-21T04:24:08;101361.22;;;9.16;83.42
26443;BME280;5563;52.296;6.806;2023-04-21T04:26:43;101357.06;;;9.12;83.33
26443;BME280;5563;52.296;6.806;2023-04-21T04:29:11;101369.97;;;9.18;83.37
26443;BME280;5563;52.296;6.806;2023-04-21T04:31:46;101355.25;;;9.12;83.24
26443;BME280;5563;52.296;6.806;2023-04-21T04:34:15;101349.66;;;9.17;83.30
26443;BME280;5563;52.296;6.806;2023-04-21T04:36:49;101358.28;;;9.20;83.26
26443;BME280;5563;52.296;6.806;2023-04-21T04:39:17;101354.22;;;9.15;83.21
26443;BME280;5563;52.296;6.806;2023-04-21T04:41:57;101358.16;;;9.22;83.10
26443;BME280;5563;52.296;6.806;2023-04-21T04:44:31;101367.09;;;9.21;83.01
26443;BME280;5563;52.296;6.806;2023-04-21T04:47:07;101374.13;;;9.22;83.05
26443;BME280;5563;52.296;6.806;2023-04-21T04:49:54;101373.28;;;9.21;83.01
26443;BME280;5563;52.296;6.806;2023-04-21T04:52:28;101373.47;;;9.18;83.09
26443;BME280;5563;52.296;6.806;2023-04-21T04:54:55;101378.81;;;9.18;82.95
26443;BME280;5563;52.296;6.806;2023-04-21T04:57:29;101378.69;;;9.20;83.01
26443;BME280;5563;52.296;6.806;2023-04-21T04:59:56;101386.56;;;9.21;83.23
26443;BME280;5563;52.296;6.806;2023-04-21T05:02:31;101389.25;;;9.21;83.10
26443;BME280;5563;52.296;6.806;2023-04-21T05:05:05;101384.03;;;9.20;83.06
26443;BME280;5563;52.296;6.806;2023-04-21T05:07:34;101385.00;;;9.19;82.94
26443;BME280;5563;52.296;6.806;2023-04-21T05:10:08;101382.34;;;9.19;83.06
26443;BME280;5563;52.296;6.806;2023-04-21T05:12:41;101386.69;;;9.20;82.90
26443;BME280;5563;52.296;6.806;2023-04-21T05:15:16;101383.66;;;9.12;83.04
26443;BME280;5563;52.296;6.806;2023-04-21T05:17:43;101396.56;;;9.18;83.17
26443;BME280;5563;52.296;6.806;2023-04-21T05:20:19;101390.69;;;9.13;83.20
26443;BME280;5563;52.296;6.806;2023-04-21T05:22:46;101391.97;;;9.07;83.27
26443;BME280;5563;52.296;6.806;2023-04-21T05:25:20;101394.31;;;9.12;83.36
26443;BME280;5563;52.296;6.806;2023-04-21T05:27:48;101370.53;;;8.96;83.33
26443;BME280;5563;52.296;6.806;2023-04-21T05:30:24;101395.16;;;9.12;83.35
26443;BME280;5563;52.296;6.806;2023-04-21T05:32:51;101391.00;;;9.08;83.41
26443;BME280;5563;52.296;6.806;2023-04-21T05:35:25;101401.34;;;9.13;83.53
26443;BME280;5563;52.296;6.806;2023-04-21T05:37:52;101401.44;;;9.11;83.12
26443;BME280;5563;52.296;6.806;2023-04-21T05:40:20;101401.34;;;9.13;83.34
26443;BME280;5563;52.296;6.806;2023-04-21T05:42:53;101409.31;;;9.13;83.14
26443;BME280;5563;52.296;6.806;2023-04-21T05:45:22;101410.19;;;9.13;83.26
26443;BME280;5563;52.296;6.806;2023-04-21T05:47:55;101409.13;;;9.16;83.45
26443;BME280;5563;52.296;6.806;2023-04-21T05:50:25;101397.50;;;9.04;83.14
26443;BME280;5563;52.296;6.806;2023-04-21T05:53:06;101404.88;;;9.13;83.37
26443;BME280;5563;52.296;6.806;2023-04-21T05:55:35;101411.16;;;9.25;83.20
26443;BME280;5563;52.296;6.806;2023-04-21T05:58:10;101401.03;;;9.17;83.06
26443;BME280;5563;52.296;6.806;2023-04-21T06:00:37;101410.03;;;9.29;82.89
26443;BME280;5563;52.296;6.806;2023-04-21T06:03:13;101413.44;;;9.31;82.88
26443;BME280;5563;52.296;6.806;2023-04-21T06:05:40;101405.03;;;9.37;83.03
26443;BME280;5563;52.296;6.806;2023-04-21T06:08:21;101408.47;;;9.51;83.10
26443;BME280;5563;52.296;6.806;2023-04-21T06:10:55;101406.06;;;9.61;82.84
26443;BME280;5563;52.296;6.806;2023-04-21T06:13:29;101403.53;;;9.72;82.42
26443;BME280;5563;52.296;6.806;2023-04-21T06:15:56;101400.41;;;9.78;82.53
26443;BME280;5563;52.296;6.806;2023-04-21T06:18:29;101397.88;;;9.89;81.90
26443;BME280;5563;52.296;6.806;2023-04-21T06:20:56;101398.50;;;9.93;81.72
26443;BME280;5563;52.296;6.806;2023-04-21T06:23:30;101405.13;;;10.00;81.40
26443;BME280;5563;52.296;6.806;2023-04-21T06:26:05;101405.25;;;9.98;81.05
26443;BME280;5563;52.296;6.806;2023-04-21T06:28:38;101395.34;;;10.00;80.85
26443;BME280;5563;52.296;6.806;2023-04-21T06:31:12;101396.16;;;10.01;81.01
26443;BME280;5563;52.296;6.806;2023-04-21T06:33:46;101390.03;;;10.13;81.28
26443;BME280;5563;52.296;6.806;2023-04-21T06:36:19;101390.97;;;10.24;81.13
26443;BME280;5563;52.296;6.806;2023-04-21T06:38:48;101394.03;;;10.31;80.04
26443;BME280;5563;52.296;6.806;2023-04-21T06:41:21;101396.69;;;10.31;79.24
26443;BME280;5563;52.296;6.806;2023-04-21T06:43:50;101391.38;;;10.31;79.82
26443;BME280;5563;52.296;6.806;2023-04-21T06:46:25;101390.44;;;10.32;79.56
26443;BME280;5563;52.296;6.806;2023-04-21T06:48:53;101382.75;;;10.27;79.68
26443;BME280;5563;52.296;6.806;2023-04-21T06:51:26;101385.22;;;10.30;79.47
26443;BME280;5563;52.296;6.806;2023-04-21T06:53:54;101391.50;;;10.29;79.75
26443;BME280;5563;52.296;6.806;2023-04-21T06:56:29;101381.69;;;10.30;79.30
26443;BME280;5563;52.296;6.806;2023-04-21T06:59:02;101387.66;;;10.33;79.43
26443;BME280;5563;52.296;6.806;2023-04-21T07:01:36;101371.53;;;10.35;79.50
26443;BME280;5563;52.296;6.806;2023-04-21T07:04:09;101379.22;;;10.39;79.18
26443;BME280;5563;52.296;6.806;2023-04-21T07:06:37;101381.75;;;10.53;79.30
26443;BME280;5563;52.296;6.806;2023-04-21T07:09:18;101369.69;;;10.60;78.56
26443;BME280;5563;52.296;6.806;2023-04-21T07:11:45;101382.13;;;10.72;79.03
26443;BME280;5563;52.296;6.806;2023-04-21T07:14:19;101381.09;;;10.86;78.75
26443;BME280;5563;52.296;6.806;2023-04-21T07:16:46;101371.97;;;11.01;78.19
26443;BME280;5563;52.296;6.806;2023-04-21T07:19:20;101374.59;;;11.14;77.32
26443;BME280;5563;52.296;6.806;2023-04-21T07:21:47;101368.78;;;11.20;76.74
26443;BME280;5563;52.296;6.806;2023-04-21T07:24:21;101368.56;;;11.23;76.85
26443;BME280;5563;52.296;6.806;2023-04-21T07:26:48;101361.06;;;11.28;77.13
26443;BME280;5563;52.296;6.806;2023-04-21T07:29:21;101358.66;;;11.36;76.72
26443;BME280;5563;52.296;6.806;2023-04-21T07:31:48;101368.63;;;11.45;76.54
26443;BME280;5563;52.296;6.806;2023-04-21T07:34:24;101361.38;;;11.47;75.20
26443;BME280;5563;52.296;6.806;2023-04-21T07:36:51;101362.97;;;11.49;75.83
26443;BME280;5563;52.296;6.806;2023-04-21T07:39:25;101348.88;;;11.47;74.89
26443;BME280;5563;52.296;6.806;2023-04-21T07:41:52;101366.00;;;11.56;75.13
26443;BME280;5563;52.296;6.806;2023-04-21T07:44:25;101361.69;;;11.66;75.68
26443;BME280;5563;52.296;6.806;2023-04-21T07:46:54;101366.06;;;11.78;75.47
26443;BME280;5563;52.296;6.806;2023-04-21T07:49:28;101361.59;;;11.78;73.99
26443;BME280;5563;52.296;6.806;2023-04-21T07:52:01;101354.16;;;11.71;74.29
26443;BME280;5563;52.296;6.806;2023-04-21T07:54:35;101354.44;;;11.79;74.63
26443;BME280;5563;52.296;6.806;2023-04-21T07:57:08;101353.44;;;11.80;74.30
26443;BME280;5563;52.296;6.806;2023-04-21T07:59:35;101341.56;;;11.84;75.00
26443;BME280;5563;52.296;6.806;2023-04-21T08:02:09;101365.03;;;12.03;74.27
26443;BME280;5563;52.296;6.806;2023-04-21T08:04:37;101352.88;;;12.10;73.66
26443;BME280;5563;52.296;6.806;2023-04-21T08:07:10;101366.50;;;12.29;73.96
26443;BME280;5563;52.296;6.806;2023-04-21T08:09:50;101359.28;;;12.40;73.50
26443;BME280;5563;52.296;6.806;2023-04-21T08:12:31;101361.22;;;12.60;72.68
26443;BME280;5563;52.296;6.806;2023-04-21T08:14:58;101360.97;;;12.74;72.11
26443;BME280;5563;52.296;6.806;2023-04-21T08:17:33;101357.13;;;12.88;71.72
26443;BME280;5563;52.296;6.806;2023-04-21T08:20:00;101363.09;;;12.91;70.68
26443;BME280;5563;52.296;6.806;2023-04-21T08:22:35;101356.78;;;12.92;71.42
26443;BME280;5563;52.296;6.806;2023-04-21T08:25:05;101356.31;;;12.87;70.65
26443;BME280;5563;52.296;6.806;2023-04-21T08:27:33;101355.56;;;12.96;71.91
26443;BME280;5563;52.296;6.806;2023-04-21T08:30:07;101355.78;;;13.05;71.13
26443;BME280;5563;52.296;6.806;2023-04-21T08:32:36;101353.31;;;13.13;70.73
26443;BME280;5563;52.296;6.806;2023-04-21T08:35:09;101360.50;;;13.12;69.51
26443;BME280;5563;52.296;6.806;2023-04-21T08:37:38;101358.59;;;13.03;69.55
26443;BME280;5563;52.296;6.806;2023-04-21T08:40:12;101363.47;;;12.98;70.24
26443;BME280;5563;52.296;6.806;2023-04-21T08:42:39;101369.75;;;12.97;70.44
26443;BME280;5563;52.296;6.806;2023-04-21T08:45:13;101353.50;;;12.89;70.43
26443;BME280;5563;52.296;6.806;2023-04-21T08:47:47;101359.59;;;12.91;69.70
26443;BME280;5563;52.296;6.806;2023-04-21T08:50:16;101362.13;;;12.92;69.92
26443;BME280;5563;52.296;6.806;2023-04-21T08:52:50;101366.97;;;12.98;70.62
26443;BME280;5563;52.296;6.806;2023-04-21T08:55:19;101346.19;;;12.91;70.34
26443;BME280;5563;52.296;6.806;2023-04-21T08:57:57;101371.72;;;13.06;70.40
26443;BME280;5563;52.296;6.806;2023-04-21T09:00:26;101364.69;;;13.05;69.02
26443;BME280;5563;52.296;6.806;2023-04-21T09:03:00;101357.75;;;13.02;69.02
26443;BME280;5563;52.296;6.806;2023-04-21T09:06:01;101349.81;;;13.01;69.78
26443;BME280;5563;52.296;6.806;2023-04-21T09:08:40;101359.66;;;13.12;70.13
26443;BME280;5563;52.296;6.806;2023-04-21T09:11:14;101354.03;;;13.15;69.33
26443;BME280;5563;52.296;6.806;2023-04-21T09:13:47;101358.31;;;13.17;68.90
26443;BME280;5563;52.296;6.806;2023-04-21T09:16:19;101338.63;;;13.07;68.86
26443;BME280;5563;52.296;6.806;2023-04-21T09:18:53;101357.22;;;13.20;68.71
26443;BME280;5563;52.296;6.806;2023-04-21T09:21:27;101357.31;;;13.18;68.53
26443;BME280;5563;52.296;6.806;2023-04-21T09:24:04;101354.53;;;13.20;69.12
26443;BME280;5563;52.296;6.806;2023-04-21T09:26:33;101355.50;;;13.19;69.07
26443;BME280;5563;52.296;6.806;2023-04-21T09:29:07;101347.00;;;13.14;69.00
26443;BME280;5563;52.296;6.806;2023-04-21T09:31:43;101361.97;;;13.16;68.85
26443;BME280;5563;52.296;6.806;2023-04-21T09:34:20;101353.56;;;13.10;69.62
26443;BME280;5563;52.296;6.806;2023-04-21T09:37:03;101349.94;;;13.11;69.03
26443;BME280;5563;52.296;6.806;2023-04-21T09:39:37;101352.09;;;13.17;69.04
26443;BME280;5563;52.296;6.806;2023-04-21T09:42:31;101354.25;;;13.23;69.16
26443;BME280;5563;52.296;6.806;2023-04-21T09:45:08;101358.75;;;13.22;68.73
26443;BME280;5563;52.296;6.806;2023-04-21T09:48:02;101352.19;;;13.26;69.02
26443;BME280;5563;52.296;6.806;2023-04-21T09:50:38;101348.38;;;13.29;68.47
26443;BME280;5563;52.296;6.806;2023-04-21T09:53:16;101348.13;;;13.32;68.36
26443;BME280;5563;52.296;6.806;2023-04-21T09:55:46;101350.41;;;13.36;69.06
26443;BME280;5563;52.296;6.806;2023-04-21T09:58:22;101347.59;;;13.38;68.47
26443;BME280;5563;52.296;6.806;2023-04-21T10:00:55;101352.72;;;13.41;69.00
26443;BME280;5563;52.296;6.806;2023-04-21T10:03:31;101343.69;;;13.42;69.28
26443;BME280;5563;52.296;6.806;2023-04-21T10:05:59;101336.47;;;13.53;69.74
26443;BME280;5563;52.296;6.806;2023-04-21T10:08:34;101339.31;;;13.61;69.09
26443;BME280;5563;52.296;6.806;2023-04-21T10:11:09;101344.47;;;13.74;68.34
26443;BME280;5563;52.296;6.806;2023-04-21T10:13:43;101337.59;;;13.81;68.35
26443;BME280;5563;52.296;6.806;2023-04-21T10:16:15;101330.00;;;13.86;67.35
26443;BME280;5563;52.296;6.806;2023-04-21T10:18:50;101341.19;;;13.91;67.01
26443;BME280;5563;52.296;6.806;2023-04-21T10:21:19;101329.16;;;13.85;68.39
26443;BME280;5563;52.296;6.806;2023-04-21T10:23:56;101333.84;;;13.93;68.94
26443;BME280;5563;52.296;6.806;2023-04-21T10:26:31;101343.19;;;13.98;69.07
26443;BME280;5563;52.296;6.806;2023-04-21T10:29:07;101331.38;;;14.01;68.98
26443;BME280;5563;52.296;6.806;2023-04-21T10:31:35;101340.72;;;14.06;70.00
26443;BME280;5563;52.296;6.806;2023-04-21T10:39:30;101309.84;;;14.22;69.56
26443;BME280;5563;52.296;6.806;2023-04-21T10:42:25;101320.38;;;14.34;69.03
26443;BME280;5563;52.296;6.806;2023-04-21T10:45:01;101313.91;;;14.37;68.51
26443;BME280;5563;52.296;6.806;2023-04-21T10:47:44;101311.53;;;14.43;67.77
26443;BME280;5563;52.296;6.806;2023-04-21T10:53:07;101303.47;;;14.43;67.21
26443;BME280;5563;52.296;6.806;2023-04-21T10:55:47;101307.84;;;14.44;66.34
26443;BME280;5563;52.296;6.806;2023-04-21T10:58:22;101300.78;;;14.43;66.07
26443;BME280;5563;52.296;6.806;2023-04-21T11:00:53;101298.09;;;14.43;65.39
26443;BME280;5563;52.296;6.806;2023-04-21T11:03:33;101300.66;;;14.45;66.12
26443;BME280;5563;52.296;6.806;2023-04-21T11:06:13;101292.88;;;14.51;66.21
26443;BME280;5563;52.296;6.806;2023-04-21T11:08:57;101299.28;;;14.60;65.38
26443;BME280;5563;52.296;6.806;2023-04-21T11:11:31;101300.53;;;14.65;64.83
26443;BME280;5563;52.296;6.806;2023-04-21T11:14:01;101288.84;;;14.66;64.27
26443;BME280;5563;52.296;6.806;2023-04-21T11:16:36;101289.41;;;14.70;63.75
26443;BME280;5563;52.296;6.806;2023-04-21T11:19:10;101297.59;;;14.68;63.71
26443;BME280;5563;52.296;6.806;2023-04-21T11:21:38;101286.84;;;14.68;64.06
26443;BME280;5563;52.296;6.806;2023-04-21T11:24:11;101282.78;;;14.74;64.69
26443;BME280;5563;52.296;6.806;2023-04-21T11:26:46;101274.28;;;14.78;63.85
26443;BME280;5563;52.296;6.806;2023-04-21T11:29:20;101272.59;;;14.87;63.02
26443;BME280;5563;52.296;6.806;2023-04-21T11:31:46;101270.06;;;14.95;63.51
26443;BME280;5563;52.296;6.806;2023-04-21T11:34:25;101265.81;;;15.02;62.84
26443;BME280;5563;52.296;6.806;2023-04-21T11:36:59;101259.72;;;15.09;62.96
26443;BME280;5563;52.296;6.806;2023-04-21T11:39:33;101264.69;;;15.24;63.02
26443;BME280;5563;52.296;6.806;2023-04-21T11:42:10;101256.72;;;15.32;62.74
26443;BME280;5563;52.296;6.806;2023-04-21T11:44:44;101256.75;;;15.41;61.70
26443;BME280;5563;52.296;6.806;2023-04-21T11:47:18;101250.06;;;15.45;60.55
26443;BME280;5563;52.296;6.806;2023-04-21T11:49:55;101247.13;;;15.48;61.25
26443;BME280;5563;52.296;6.806;2023-04-21T11:52:31;101248.50;;;15.52;60.67
26443;BME280;5563;52.296;6.806;2023-04-21T11:55:14;101240.91;;;15.48;60.43
26443;BME280;5563;52.296;6.806;2023-04-21T11:57:44;101235.66;;;15.46;61.24
26443;BME280;5563;52.296;6.806;2023-04-21T12:00:18;101234.66;;;15.47;61.10
26443;BME280;5563;52.296;6.806;2023-04-21T12:02:56;101233.69;;;15.48;61.49
26443;BME280;5563;52.296;6.806;2023-04-21T12:05:24;101227.31;;;15.49;61.11
26443;BME280;5563;52.296;6.806;2023-04-21T12:07:58;101222.47;;;15.53;60.57
26443;BME280;5563;52.296;6.806;2023-04-21T12:10:43;101218.38;;;15.58;61.26
26443;BME280;5563;52.296;6.806;2023-04-21T12:13:21;101204.28;;;15.74;61.32
26443;BME280;5563;52.296;6.806;2023-04-21T12:15:49;101204.06;;;15.94;60.16
26443;BME280;5563;52.296;6.806;2023-04-21T12:18:26;101193.00;;;16.25;59.94
26443;BME280;5563;52.296;6.806;2023-04-21T12:20:53;101189.13;;;16.54;58.68
26443;BME280;5563;52.296;6.806;2023-04-21T12:23:27;101182.31;;;16.85;58.59
26443;BME280;5563;52.296;6.806;2023-04-21T12:25:54;101180.06;;;16.98;57.40
26443;BME280;5563;52.296;6.806;2023-04-21T12:28:28;101174.31;;;17.19;56.61
26443;BME280;5563;52.296;6.806;2023-04-21T12:30:55;101166.47;;;17.25;55.78
26443;BME280;5563;52.296;6.806;2023-04-21T12:33:23;101162.94;;;17.51;55.69
26443;BME280;5563;52.296;6.806;2023-04-21T12:35:57;101159.44;;;18.00;55.38
26443;BME280;5563;52.296;6.806;2023-04-21T12:38:25;101149.09;;;18.45;53.16
26443;BME280;5563;52.296;6.806;2023-04-21T12:40:59;101142.34;;;18.73;50.33
26443;BME280;5563;52.296;6.806;2023-04-21T12:43:26;101154.03;;;18.82;52.15
26443;BME280;5563;52.296;6.806;2023-04-21T12:46:00;101162.59;;;19.09;51.92
26443;BME280;5563;52.296;6.806;2023-04-21T12:48:27;101150.63;;;19.12;50.23
26443;BME280;5563;52.296;6.806;2023-04-21T12:51:00;101144.38;;;19.11;50.64
26443;BME280;5563;52.296;6.806;2023-04-21T12:53:28;101126.63;;;19.17;50.94
26443;BME280;5563;52.296;6.806;2023-04-21T12:56:01;101130.16;;;19.25;48.92
26443;BME280;5563;52.296;6.806;2023-04-21T12:58:30;101122.88;;;19.18;49.60
26443;BME280;5563;52.296;6.806;2023-04-21T13:01:04;101121.44;;;18.83;49.99
26443;BME280;5563;52.296;6.806;2023-04-21T13:03:32;101119.75;;;18.42;48.77
26443;BME280;5563;52.296;6.806;2023-04-21T13:06:06;101117.47;;;18.13;50.41
26443;BME280;5563;52.296;6.806;2023-04-21T13:08:34;101127.22;;;17.98;51.29
26443;BME280;5563;52.296;6.806;2023-04-21T13:11:15;101128.00;;;17.83;52.40
26443;BME280;5563;52.296;6.806;2023-04-21T13:13:42;101101.13;;;17.65;51.47
26443;BME280;5563;52.296;6.806;2023-04-21T13:16:09;101096.88;;;17.47;52.10
26443;BME280;5563;52.296;6.806;2023-04-21T13:18:44;101105.72;;;17.39;52.18
26443;BME280;5563;52.296;6.806;2023-04-21T13:21:13;101096.03;;;17.20;52.71
26443;BME280;5563;52.296;6.806;2023-04-21T13:23:47;101105.75;;;17.13;53.92
26443;BME280;5563;52.296;6.806;2023-04-21T13:26:21;101093.63;;;17.09;53.47
26443;BME280;5563;52.296;6.806;2023-04-21T13:28:55;101083.78;;;17.00;52.56
26443;BME280;5563;52.296;6.806;2023-04-21T13:31:23;101090.31;;;16.98;55.44
26443;BME280;5563;52.296;6.806;2023-04-21T13:33:58;101080.50;;;16.89;53.92
26443;BME280;5563;52.296;6.806;2023-04-21T13:36:25;101063.00;;;16.85;54.69
26443;BME280;5563;52.296;6.806;2023-04-21T13:39:00;101060.75;;;16.80;55.23
26443;BME280;5563;52.296;6.806;2023-04-21T13:41:27;101055.53;;;16.79;55.10